Las Mesitas, Colorado
Current Conditions -  °F | °C
As of 6:33 AM on Wednesday 22 Oct 2014 (Local Time) from KALS Reporting Station
Haze Haze  
Wind Chill: 31°   Ceiling: 100
Heat Index: 31°   Visibility: 0.75mi
Dew Point: 29°   Wind: 3mph
Humidity: 92%   Direction: 50°NE
Pressure: 30.22"   Gusts: NA
Location:  37.1816°N, 106.262°W
Report Text: KALS 221233Z AUTO 05003KT 3/4SM BR VV001 M01/M02 A3022 RMK AO2 T10061017
Loading
Personal Weather Stations






























Interactive Weather Map
Tropical Storm Tracking
New forecast layout! Learn more

10-Day Weather Forecast

Advertisements
Track Severe Weather on mobile